»·PEaware :: ASA55 KLAX-KLAS

ASA55 :: KLAX-KLAS

FLIGHT INFORMATION

Flight Status: Arrived
Operator:
Alaska Airlines
More flights by this operator :: More flights under this callsign
Pilot: Jack W. (13780)
Aircraft: BOEING 737-900
(B739)
More flights by this aircraft type
Origin: KLAX Los Angeles Intl
United States
Destination: KLAS McCarran Intl
United States
More flights between these airports :: More routes between these airports
Route: +ORCKA3 MISEN KEPEC6
File this flight plan on PilotEdge
Remarks: KONT
Altitude:
(Current/Filed)
0ft
Speed:
(Current/Filed)
3400kts
Departed: 06-Oct-18 08:00 PM
Arrived: 06-Oct-18 08:52 PM
Distance/Time
Traveled:
205nm/0:52
Distance/Time
To Go:
Arrived

Flight Plot

Page will automatically refresh every two minutes.

Flight plan parsing failed; only flown route is shown


Map Options




Map Legend


Flown Route
Filed Route
Departure Airport
Arrival Airport
Navaid (VOR, NDB)
Fix

Horizontal Profiles

Position Reports

Time Latitude Longitude Heading Altitude Ground
Speed
06-Oct-18 19:32 33.939977 -118.401833 358 110ft 0kts
06-Oct-18 19:33 33.939977 -118.401833 358 110ft 0kts
06-Oct-18 19:34 33.939977 -118.401833 358 110ft 0kts
06-Oct-18 19:35 33.939977 -118.401833 358 110ft 0kts
06-Oct-18 19:36 33.939977 -118.401833 358 110ft 0kts
06-Oct-18 19:37 33.939977 -118.401833 358 110ft 0kts
06-Oct-18 19:38 33.939977 -118.401833 358 110ft 0kts
06-Oct-18 19:39 33.939977 -118.401833 358 110ft 0kts
06-Oct-18 19:40 33.939977 -118.401833 358 110ft 0kts
06-Oct-18 19:41 33.939977 -118.401833 358 110ft 0kts
06-Oct-18 19:42 33.939977 -118.401833 358 110ft 0kts
06-Oct-18 19:43 33.939977 -118.401833 358 110ft 0kts
06-Oct-18 19:44 33.939977 -118.401833 358 110ft 0kts
06-Oct-18 19:45 33.939977 -118.401833 358 110ft 0kts
06-Oct-18 19:46 33.939977 -118.401833 358 110ft 0kts
06-Oct-18 19:47 33.939977 -118.401833 358 110ft 0kts
06-Oct-18 19:48 33.939977 -118.401833 358 110ft 0kts
06-Oct-18 19:49 33.939977 -118.401833 358 110ft 0kts
06-Oct-18 19:50 33.939977 -118.401833 358 110ft 0kts
06-Oct-18 19:51 33.939977 -118.401833 358 110ft 0kts
06-Oct-18 19:52 33.939952 -118.401832 358 110ft 2kts
06-Oct-18 19:53 33.939406 -118.401990 70 110ft 2kts
06-Oct-18 19:54 33.939388 -118.402131 83 110ft 0kts
06-Oct-18 19:55 33.939388 -118.402131 83 110ft 0kts
06-Oct-18 19:56 33.939453 -118.401546 81 110ft 11kts
06-Oct-18 19:57 33.939098 -118.396994 84 110ft 18kts
06-Oct-18 19:58 33.939432 -118.393719 82 110ft 0kts
06-Oct-18 19:59 33.939841 -118.389755 82 110ft 21kts
06-Oct-18 20:00 33.940393 -118.384311 83 110ft 18kts
06-Oct-18 20:01 33.940785 -118.380521 96 110ft 9kts
06-Oct-18 20:02 33.938477 -118.393653 264 118ft 156kts
06-Oct-18 20:03 33.931286 -118.461950 257 2866ft 247kts
06-Oct-18 20:04 33.889175 -118.534832 248 4983ft 283kts
06-Oct-18 20:05 33.857113 -118.617210 223 4982ft 272kts
06-Oct-18 20:06 33.803319 -118.588345 85 5030ft 274kts
06-Oct-18 20:07 33.843554 -118.513167 52 8912ft 276kts
06-Oct-18 20:08 33.891188 -118.436783 52 11548ft 313kts
06-Oct-18 20:09 33.940457 -118.357620 52 14124ft 330kts
06-Oct-18 20:10 33.995033 -118.269703 52 16690ft 342kts
06-Oct-18 20:11 34.051120 -118.179144 52 19038ft 354kts
06-Oct-18 20:12 34.109852 -118.083091 53 21348ft 366kts
06-Oct-18 20:13 34.170427 -117.982837 53 23421ft 379kts
06-Oct-18 20:14 34.233142 -117.878750 53 25318ft 392kts
06-Oct-18 20:15 34.298100 -117.770627 53 27278ft 402kts
06-Oct-18 20:16 34.364607 -117.659581 53 28862ft 414kts
06-Oct-18 20:17 34.432575 -117.545737 53 30705ft 415kts
06-Oct-18 20:18 34.501289 -117.430293 53 31099ft 433kts
06-Oct-18 20:19 34.572547 -117.310164 53 31389ft 444kts
06-Oct-18 20:20 34.645137 -117.187354 53 31858ft 454kts
06-Oct-18 20:21 34.718244 -117.063214 53 32803ft 447kts
06-Oct-18 20:22 34.789678 -116.941523 54 32999ft 450kts
06-Oct-18 20:23 34.863081 -116.822555 48 32694ft 419kts
06-Oct-18 20:24 34.930721 -116.726836 50 34747ft 287kts
06-Oct-18 20:25 35.000167 -116.646675 36 30417ft 364kts
06-Oct-18 20:26 35.067923 -116.558130 55 27942ft 367kts
06-Oct-18 20:27 35.120518 -116.452913 60 25821ft 362kts
06-Oct-18 20:28 35.172314 -116.358139 47 24895ft 338kts
06-Oct-18 20:29 35.238009 -116.281139 40 24004ft 317kts
06-Oct-18 20:30 35.303444 -116.211549 40 23160ft 306kts
06-Oct-18 20:31 35.368020 -116.144447 40 22070ft 309kts
06-Oct-18 20:32 35.429599 -116.075603 39 21573ft 293kts
06-Oct-18 20:33 35.489542 -116.008192 43 20803ft 291kts
06-Oct-18 20:34 35.546216 -115.935731 47 19750ft 298kts
06-Oct-18 20:35 35.605096 -115.861223 43 18659ft 305kts
06-Oct-18 20:36 35.666217 -115.787677 43 17816ft 302kts
06-Oct-18 20:37 35.726051 -115.714677 49 16972ft 301kts
06-Oct-18 20:38 35.769959 -115.627874 57 16289ft 297kts
06-Oct-18 20:39 35.811940 -115.541485 58 15502ft 296kts
06-Oct-18 20:40 35.856318 -115.453025 54 14315ft 312kts
06-Oct-18 20:41 35.900787 -115.360025 57 13221ft 321kts
06-Oct-18 20:42 35.947793 -115.269169 54 12097ft 313kts
06-Oct-18 20:43 35.983925 -115.172334 70 10329ft 314kts
06-Oct-18 20:44 36.012418 -115.071530 81 8791ft 301kts
06-Oct-18 20:45 36.014376 -114.971547 88 7843ft 286kts
06-Oct-18 20:46 36.013788 -114.875045 86 6871ft 261kts
06-Oct-18 20:47 36.044365 -114.811837 350 6377ft 237kts
06-Oct-18 20:48 36.072683 -114.880435 273 5772ft 229kts
06-Oct-18 20:49 36.073179 -114.952516 271 5204ft 195kts
06-Oct-18 20:50 36.073782 -115.014145 274 4420ft 170kts
06-Oct-18 20:51 36.073499 -115.068196 271 3240ft 148kts
06-Oct-18 20:52 36.073542 -115.117603 269 2229ft 150kts
06-Oct-18 20:53 36.073713 -115.156007 268 2143ft 66kts
06-Oct-18 20:54 36.073644 -115.159245 269 2156ft 8kts
06-Oct-18 20:55 36.073803 -115.161091 294 2163ft 0kts
06-Oct-18 20:56 36.073803 -115.161091 294 2163ft 0kts
06-Oct-18 20:57 36.073803 -115.161091 294 2163ft 0kts
06-Oct-18 20:58 36.073803 -115.161091 294 2163ft 0kts
06-Oct-18 20:59 36.073803 -115.161091 294 2163ft 0kts
06-Oct-18 21:00 36.073803 -115.161091 294 2163ft 0kts
06-Oct-18 21:01 36.073803 -115.161091 294 2163ft 0kts
06-Oct-18 21:02 36.073802 -115.161091 294 2163ft 0kts
06-Oct-18 21:03 36.074644 -115.161268 0 2162ft 7kts
06-Oct-18 21:04 36.076416 -115.161280 359 2156ft 7kts
06-Oct-18 21:05 36.078039 -115.161246 46 2153ft 2kts
06-Oct-18 21:06 36.078039 -115.159060 90 2146ft 7kts
06-Oct-18 21:07 36.078642 -115.158259 358 2142ft 7kts
06-Oct-18 21:08 36.080798 -115.158335 358 2135ft 7kts
06-Oct-18 21:09 36.081624 -115.157774 87 2132ft 7kts

Navigation Log

Ident Type
Flight plan parsing failed, navigation log unavailable